createdAt,value
2023-05-19T00:00:01.078Z,5.40
2023-05-19T00:02:33.964Z,5.70
2023-05-19T00:05:02.935Z,5.70
2023-05-19T00:07:32.777Z,5.20
2023-05-19T00:10:01.643Z,5.20
2023-05-19T00:15:01.942Z,5.10
2023-05-19T00:17:30.033Z,5.30
2023-05-19T00:19:58.548Z,6.10
2023-05-19T00:22:26.621Z,5.60
2023-05-19T00:24:59.812Z,5.50
2023-05-19T00:27:31.262Z,5.40
2023-05-19T00:30:09.602Z,5.40
2023-05-19T00:32:37.801Z,6.10
2023-05-19T00:35:06.841Z,5.50
2023-05-19T00:37:34.995Z,6.00
2023-05-19T00:40:05.737Z,5.80
2023-05-19T00:42:34.250Z,5.60
2023-05-19T00:45:05.506Z,5.10
2023-05-19T00:47:34.299Z,5.70
2023-05-19T00:50:02.815Z,5.50
2023-05-19T00:52:31.445Z,4.90
2023-05-19T00:55:00.242Z,4.80
2023-05-19T00:57:28.881Z,5.10
2023-05-19T00:59:57.183Z,5.90
2023-05-19T01:02:25.767Z,5.70
2023-05-19T01:04:55.624Z,6.70
2023-05-19T01:07:23.834Z,6.40
2023-05-19T01:09:52.220Z,6.30
2023-05-19T01:12:20.518Z,6.00
2023-05-19T01:14:48.925Z,6.20
2023-05-19T01:17:16.949Z,5.90
2023-05-19T01:19:57.627Z,6.10
2023-05-19T01:22:34.566Z,4.90
2023-05-19T01:25:13.270Z,5.50
2023-05-19T01:28:06.464Z,6.10
2023-05-19T01:30:39.830Z,5.10
2023-05-19T01:33:16.013Z,4.90
2023-05-19T01:35:45.901Z,6.20
2023-05-19T01:38:17.507Z,5.50
2023-05-19T01:40:56.869Z,6.30
2023-05-19T01:43:27.492Z,6.20
2023-05-19T01:45:58.776Z,5.50
2023-05-19T01:48:29.960Z,5.90
2023-05-19T01:51:02.595Z,6.20
2023-05-19T01:53:31.160Z,6.70
2023-05-19T01:56:02.025Z,5.40
2023-05-19T01:58:47.151Z,5.50
2023-05-19T02:01:41.602Z,5.90
2023-05-19T02:04:18.714Z,5.40
2023-05-19T02:07:21.313Z,5.20
2023-05-19T02:10:25.245Z,5.10
2023-05-19T02:12:58.870Z,5.70
2023-05-19T02:15:46.424Z,4.60
2023-05-19T02:18:20.583Z,5.60
2023-05-19T02:20:52.047Z,5.20
2023-05-19T02:23:20.584Z,6.00
2023-05-19T02:25:51.652Z,5.70
2023-05-19T02:28:28.547Z,6.60
2023-05-19T02:30:59.443Z,5.80
2023-05-19T02:33:27.853Z,5.70
2023-05-19T02:35:57.391Z,6.60
2023-05-19T02:38:26.009Z,6.40
2023-05-19T02:40:54.335Z,6.80
2023-05-19T02:43:22.648Z,6.40
2023-05-19T02:45:51.028Z,7.10
2023-05-19T02:48:19.459Z,6.30
2023-05-19T02:50:47.972Z,6.00
2023-05-19T02:53:15.999Z,5.90
2023-05-19T02:55:44.173Z,6.00
2023-05-19T02:58:12.243Z,6.30
2023-05-19T03:00:40.442Z,6.60
2023-05-19T03:03:10.600Z,6.50
2023-05-19T03:05:39.196Z,5.80
2023-05-19T03:08:07.488Z,5.90
2023-05-19T03:10:36.356Z,6.30
2023-05-19T03:13:04.417Z,6.50
2023-05-19T03:15:32.547Z,6.90
2023-05-19T03:18:03.842Z,7.00
2023-05-19T03:20:32.480Z,6.30
2023-05-19T03:23:01.667Z,7.00
2023-05-19T03:27:58.616Z,6.50
2023-05-19T03:30:26.958Z,6.60
2023-05-19T03:33:13.841Z,6.60
2023-05-19T03:35:42.180Z,7.00
2023-05-19T03:38:10.635Z,6.80
2023-05-19T03:40:42.308Z,5.80
2023-05-19T03:43:12.010Z,7.10
2023-05-19T03:45:46.514Z,5.80
2023-05-19T03:48:35.964Z,7.00
2023-05-19T03:53:52.716Z,5.40
2023-05-19T03:56:26.743Z,6.70
2023-05-19T03:58:55.470Z,6.80
2023-05-19T04:01:23.863Z,7.60
2023-05-19T04:03:52.339Z,7.20
2023-05-19T04:06:20.576Z,7.10
2023-05-19T04:08:48.852Z,5.50
2023-05-19T04:11:17.334Z,7.10
2023-05-19T04:13:48.687Z,7.30
2023-05-19T04:16:17.416Z,7.40
2023-05-19T04:18:46.468Z,6.90
2023-05-19T04:21:14.735Z,6.40
2023-05-19T04:23:42.841Z,6.20
2023-05-19T04:26:12.436Z,5.90
2023-05-19T04:28:42.468Z,6.30
2023-05-19T04:31:14.692Z,6.00
2023-05-19T04:33:43.477Z,5.80
2023-05-19T04:36:13.888Z,6.10
2023-05-19T04:38:42.406Z,5.80
2023-05-19T04:41:14.749Z,6.10
2023-05-19T04:43:44.577Z,5.90
2023-05-19T04:46:14.156Z,5.70
2023-05-19T04:48:45.232Z,5.40
2023-05-19T04:51:14.472Z,5.70
2023-05-19T04:53:44.981Z,5.30
2023-05-19T04:56:17.350Z,5.30
2023-05-19T04:58:45.787Z,5.40
2023-05-19T05:01:15.803Z,5.50
2023-05-19T05:03:45.036Z,4.30
2023-05-19T05:06:13.116Z,3.60
2023-05-19T05:08:42.714Z,4.40
2023-05-19T05:11:11.794Z,4.20
2023-05-19T05:13:43.156Z,3.60
2023-05-19T05:16:12.462Z,4.00
2023-05-19T05:18:44.693Z,3.70
2023-05-19T05:21:14.220Z,3.90
2023-05-19T05:23:54.186Z,3.70
2023-05-19T05:29:37.068Z,4.10
2023-05-19T05:32:06.209Z,3.80
2023-05-19T05:37:04.158Z,4.20
2023-05-19T05:39:32.559Z,4.30
2023-05-19T05:42:01.548Z,4.40
2023-05-19T05:44:30.671Z,4.40
2023-05-19T05:46:59.655Z,4.00
2023-05-19T05:49:28.183Z,4.00
2023-05-19T05:52:05.595Z,4.30
2023-05-19T05:54:35.996Z,4.40
2023-05-19T05:59:33.972Z,4.50
2023-05-19T06:02:09.702Z,4.30
2023-05-19T06:04:38.376Z,4.90
2023-05-19T06:07:27.352Z,4.30
2023-05-19T06:10:09.048Z,4.40
2023-05-19T06:12:40.783Z,4.70
2023-05-19T06:15:10.645Z,4.70
2023-05-19T06:17:41.402Z,6.00
2023-05-19T06:20:10.293Z,4.30
2023-05-19T06:22:38.459Z,4.20
2023-05-19T06:27:37.617Z,4.10
2023-05-19T06:30:08.721Z,4.40
2023-05-19T06:32:42.652Z,4.80
2023-05-19T06:35:11.152Z,4.30
2023-05-19T06:37:39.483Z,4.90
2023-05-19T06:40:08.634Z,4.70
2023-05-19T06:42:40.138Z,4.80
2023-05-19T06:45:16.220Z,4.90
2023-05-19T06:47:45.371Z,4.90
2023-05-19T06:50:14.736Z,5.20
2023-05-19T06:52:44.438Z,4.90
2023-05-19T06:55:13.966Z,4.80
2023-05-19T06:57:42.462Z,5.20
2023-05-19T07:00:17.595Z,5.10
2023-05-19T07:02:48.154Z,4.60
2023-05-19T07:05:17.699Z,4.60
2023-05-19T07:07:48.335Z,5.10
2023-05-19T07:10:19.530Z,5.00
2023-05-19T07:12:47.784Z,4.60
2023-05-19T07:15:19.930Z,4.60
2023-05-19T07:17:48.069Z,5.40
2023-05-19T07:20:16.620Z,5.00
2023-05-19T07:22:44.768Z,4.80
2023-05-19T07:25:15.231Z,4.60
2023-05-19T07:27:43.400Z,5.00
2023-05-19T07:30:12.103Z,5.30
2023-05-19T07:32:40.157Z,4.10
2023-05-19T07:35:08.830Z,4.30
2023-05-19T07:37:36.936Z,4.60
2023-05-19T07:40:06.847Z,5.30
2023-05-19T07:42:35.273Z,4.70
2023-05-19T07:45:03.782Z,4.70
2023-05-19T07:47:32.176Z,4.70
2023-05-19T07:50:00.271Z,5.00
2023-05-19T07:52:28.531Z,4.90
2023-05-19T07:54:56.607Z,4.90
2023-05-19T07:57:24.869Z,5.00
2023-05-19T08:00:27.328Z,4.60
2023-05-19T08:02:57.317Z,4.60
2023-05-19T08:05:29.781Z,5.10
2023-05-19T08:07:57.792Z,4.50
2023-05-19T08:10:26.061Z,4.60
2023-05-19T08:12:54.024Z,5.10
2023-05-19T08:15:22.117Z,4.70
2023-05-19T08:17:50.441Z,4.80
2023-05-19T08:20:18.856Z,4.80
2023-05-19T08:22:47.047Z,5.30
2023-05-19T08:25:15.193Z,4.90
2023-05-19T08:27:43.410Z,5.20
2023-05-19T08:30:12.470Z,5.20
2023-05-19T08:32:40.629Z,4.60
2023-05-19T08:35:09.249Z,4.70
2023-05-19T08:37:38.840Z,5.30
2023-05-19T08:40:09.025Z,5.40
2023-05-19T08:42:37.091Z,5.30
2023-05-19T08:45:06.282Z,5.00
2023-05-19T08:47:34.943Z,5.20
2023-05-19T08:50:08.028Z,5.80
2023-05-19T08:52:52.581Z,5.60
2023-05-19T08:55:47.173Z,5.60
2023-05-19T08:58:20.391Z,5.30
2023-05-19T09:00:49.530Z,5.90
2023-05-19T09:05:51.833Z,4.60
2023-05-19T09:08:20.090Z,4.90
2023-05-19T09:10:51.263Z,5.30
2023-05-19T09:13:19.801Z,4.90
2023-05-19T09:15:50.404Z,6.20
2023-05-19T09:18:18.521Z,5.40
2023-05-19T09:20:47.380Z,5.20
2023-05-19T09:23:16.936Z,5.50
2023-05-19T09:25:50.368Z,5.60
2023-05-19T09:28:29.499Z,5.70
2023-05-19T09:31:11.677Z,4.90
2023-05-19T09:33:45.617Z,5.10
2023-05-19T09:36:17.229Z,5.20
2023-05-19T09:41:14.923Z,5.40
2023-05-19T09:43:43.203Z,5.30
2023-05-19T09:46:14.897Z,5.70
2023-05-19T09:48:44.976Z,5.10
2023-05-19T09:51:13.425Z,5.00
2023-05-19T09:53:42.263Z,4.80
2023-05-19T09:56:11.107Z,4.80
2023-05-19T09:58:44.107Z,4.30
2023-05-19T10:01:12.768Z,5.70
2023-05-19T10:03:49.653Z,5.30
2023-05-19T10:06:17.801Z,4.90
2023-05-19T10:08:48.100Z,5.20
2023-05-19T10:11:17.676Z,5.20
2023-05-19T10:13:50.988Z,5.80
2023-05-19T10:16:26.869Z,5.10
2023-05-19T10:18:56.761Z,5.70
2023-05-19T10:21:25.121Z,5.50
2023-05-19T10:23:53.250Z,5.80
2023-05-19T10:26:23.248Z,5.50
2023-05-19T10:28:51.805Z,6.30
2023-05-19T10:31:22.861Z,5.20
2023-05-19T10:34:32.715Z,4.50
2023-05-19T10:37:00.727Z,4.30
2023-05-19T10:39:37.545Z,5.30
2023-05-19T10:42:31.100Z,5.10
2023-05-19T10:45:20.440Z,5.10
2023-05-19T10:47:52.024Z,5.20
2023-05-19T10:50:21.021Z,5.20
2023-05-19T10:52:56.377Z,4.70
2023-05-19T10:55:50.386Z,5.30
2023-05-19T10:58:37.653Z,5.30
2023-05-19T11:01:13.656Z,5.40
2023-05-19T11:03:49.699Z,5.30
2023-05-19T11:06:32.440Z,5.50
2023-05-19T11:09:31.094Z,5.40
2023-05-19T11:12:06.947Z,5.60
2023-05-19T11:14:35.223Z,5.30
2023-05-19T11:17:05.613Z,5.60
2023-05-19T11:19:35.686Z,5.70
2023-05-19T11:22:14.086Z,5.50
2023-05-19T11:24:52.075Z,5.70
2023-05-19T11:27:29.117Z,5.90
2023-05-19T11:30:04.435Z,5.10
2023-05-19T11:32:34.076Z,5.20
2023-05-19T11:35:02.934Z,5.60
2023-05-19T11:37:34.718Z,5.20
2023-05-19T11:40:12.103Z,6.30
2023-05-19T11:42:42.148Z,6.60
2023-05-19T11:45:10.663Z,5.30
2023-05-19T11:47:57.166Z,6.40
2023-05-19T11:52:57.813Z,6.00
2023-05-19T11:55:25.982Z,6.90
2023-05-19T11:58:05.824Z,6.50
2023-05-19T12:00:40.439Z,6.10
2023-05-19T12:03:11.002Z,5.90
2023-05-19T12:05:48.610Z,6.50
2023-05-19T12:08:19.123Z,6.50
2023-05-19T12:10:52.953Z,5.90
2023-05-19T12:13:23.148Z,6.40
2023-05-19T12:15:53.478Z,6.20
2023-05-19T12:18:21.843Z,5.60
2023-05-19T12:20:49.866Z,5.00
2023-05-19T12:23:18.194Z,6.60
2023-05-19T12:25:46.372Z,6.60
2023-05-19T12:28:16.624Z,6.60
2023-05-19T12:30:49.588Z,6.00
2023-05-19T12:33:22.829Z,5.90
2023-05-19T12:35:51.528Z,6.60
2023-05-19T12:38:20.964Z,6.60
2023-05-19T12:40:50.294Z,5.90
2023-05-19T12:43:22.484Z,7.20
2023-05-19T12:45:51.347Z,6.20
2023-05-19T12:50:55.509Z,6.80
2023-05-19T12:53:27.868Z,6.90
2023-05-19T12:55:56.029Z,7.70
2023-05-19T12:58:24.303Z,6.40
2023-05-19T13:00:59.826Z,6.90
2023-05-19T13:03:28.483Z,6.90
2023-05-19T13:10:56.551Z,6.50
2023-05-19T13:13:25.313Z,7.20
2023-05-19T13:15:53.811Z,7.10
2023-05-19T13:18:22.074Z,7.10
2023-05-19T13:20:54.355Z,6.90
2023-05-19T13:23:22.352Z,6.70
2023-05-19T13:25:51.658Z,6.50
2023-05-19T13:28:20.194Z,5.70
2023-05-19T13:33:20.479Z,5.20
2023-05-19T13:35:49.410Z,5.20
2023-05-19T13:38:17.437Z,5.20
2023-05-19T13:40:46.033Z,5.60
2023-05-19T13:43:15.168Z,5.80
2023-05-19T13:45:44.715Z,5.00
2023-05-19T13:48:13.344Z,6.00
2023-05-19T13:50:42.877Z,6.30
2023-05-19T13:53:11.773Z,6.20
2023-05-19T13:55:45.610Z,5.60
2023-05-19T13:58:19.413Z,5.20
2023-05-19T14:00:47.996Z,6.20
2023-05-19T14:05:59.167Z,5.50
2023-05-19T14:11:05.543Z,5.70
2023-05-19T14:16:09.246Z,5.50
2023-05-19T14:18:37.792Z,5.20
2023-05-19T14:21:08.964Z,5.50
2023-05-19T14:23:42.400Z,4.50
2023-05-19T14:26:19.957Z,5.20
2023-05-19T14:28:49.145Z,5.70
2023-05-19T14:31:19.835Z,5.60
2023-05-19T14:33:48.811Z,5.70
2023-05-19T14:36:18.819Z,5.60
2023-05-19T14:41:15.555Z,6.10
2023-05-19T14:43:43.859Z,6.30
2023-05-19T14:46:11.889Z,6.10
2023-05-19T14:48:40.114Z,5.80
2023-05-19T14:51:08.421Z,5.70
2023-05-19T14:53:36.813Z,5.60
2023-05-19T14:56:06.539Z,5.70
2023-05-19T14:58:34.833Z,5.80
2023-05-19T15:01:02.868Z,5.90
2023-05-19T15:03:31.354Z,5.20
2023-05-19T15:06:00.310Z,5.60
2023-05-19T15:08:28.495Z,6.20
2023-05-19T15:10:56.557Z,6.10
2023-05-19T15:13:26.425Z,5.80
2023-05-19T15:16:08.448Z,5.20
2023-05-19T15:18:44.283Z,6.90
2023-05-19T15:21:12.804Z,6.80
2023-05-19T15:23:41.183Z,6.30
2023-05-19T15:26:09.664Z,6.30
2023-05-19T15:28:38.133Z,6.10
2023-05-19T15:31:07.386Z,6.10
2023-05-19T15:33:36.306Z,6.30
2023-05-19T15:38:36.378Z,4.60
2023-05-19T15:41:08.411Z,4.80
2023-05-19T15:43:37.906Z,5.20
2023-05-19T15:46:06.885Z,5.60
2023-05-19T15:48:35.317Z,5.50
2023-05-19T15:51:03.606Z,5.80
2023-05-19T15:53:31.670Z,6.00
2023-05-19T15:56:00.917Z,5.50
2023-05-19T15:58:30.244Z,6.00
2023-05-19T16:00:58.420Z,6.10
2023-05-19T16:03:27.492Z,6.10
2023-05-19T16:08:25.293Z,5.60
2023-05-19T16:10:55.082Z,6.10
2023-05-19T16:13:23.576Z,6.60
2023-05-19T16:15:52.733Z,5.80
2023-05-19T16:18:21.300Z,6.20
2023-05-19T16:20:51.328Z,7.20
2023-05-19T16:23:19.571Z,5.50
2023-05-19T16:25:48.935Z,5.90
2023-05-19T16:28:17.286Z,5.90
2023-05-19T16:30:46.281Z,6.40
2023-05-19T16:33:14.322Z,6.10
2023-05-19T16:35:44.645Z,6.40
2023-05-19T16:38:12.927Z,6.60
2023-05-19T16:40:41.028Z,6.70
2023-05-19T16:43:09.221Z,5.60
2023-05-19T16:45:38.437Z,6.70
2023-05-19T16:48:06.652Z,6.50
2023-05-19T16:50:35.128Z,6.70
2023-05-19T16:53:03.454Z,6.70
2023-05-19T16:55:31.758Z,6.60
2023-05-19T16:57:59.995Z,6.10
2023-05-19T17:00:29.495Z,6.20
2023-05-19T17:02:57.716Z,5.30
2023-05-19T17:05:27.379Z,6.60
2023-05-19T17:07:55.859Z,6.50
2023-05-19T17:10:24.105Z,6.50
2023-05-19T17:12:52.593Z,6.70
2023-05-19T17:15:21.106Z,6.30
2023-05-19T17:17:49.802Z,7.00
2023-05-19T17:20:20.333Z,6.20
2023-05-19T17:22:48.450Z,9.00
2023-05-19T17:25:16.696Z,6.70
2023-05-19T17:27:44.900Z,6.80
2023-05-19T17:30:14.224Z,6.70
2023-05-19T17:32:42.765Z,6.70
2023-05-19T17:35:11.415Z,7.20
2023-05-19T17:37:39.521Z,6.70
2023-05-19T17:40:08.713Z,6.80
2023-05-19T17:42:36.962Z,6.60
2023-05-19T17:45:07.778Z,6.90
2023-05-19T17:47:36.018Z,6.50
2023-05-19T17:50:04.648Z,6.90
2023-05-19T17:52:33.509Z,7.30
2023-05-19T17:55:02.080Z,7.10
2023-05-19T17:57:32.724Z,6.40
2023-05-19T18:00:01.580Z,6.60
2023-05-19T18:02:33.571Z,5.50
2023-05-19T18:07:54.198Z,5.90
2023-05-19T18:10:24.622Z,6.80
2023-05-19T18:13:01.682Z,6.10
2023-05-19T18:15:30.035Z,5.50
2023-05-19T18:17:59.255Z,5.80
2023-05-19T18:20:28.816Z,6.50
2023-05-19T18:22:59.833Z,5.60
2023-05-19T18:25:31.067Z,6.40
2023-05-19T18:28:08.373Z,6.70
2023-05-19T18:30:36.663Z,6.60
2023-05-19T18:33:07.314Z,6.60
2023-05-19T18:35:37.511Z,6.60
2023-05-19T18:38:07.972Z,7.20
2023-05-19T18:40:36.485Z,6.90
2023-05-19T18:43:05.181Z,6.60
2023-05-19T18:45:36.930Z,6.90
2023-05-19T18:48:07.403Z,6.50
2023-05-19T18:50:36.584Z,5.60
2023-05-19T18:55:38.287Z,6.00
2023-05-19T18:58:07.093Z,5.20
2023-05-19T19:00:36.155Z,7.00
2023-05-19T19:03:05.000Z,7.00
2023-05-19T19:05:33.569Z,7.40
2023-05-19T19:08:10.073Z,6.90
2023-05-19T19:10:40.731Z,7.30
2023-05-19T19:13:09.206Z,6.50
2023-05-19T19:15:39.704Z,6.80
2023-05-19T19:18:08.786Z,7.10
2023-05-19T19:20:37.273Z,7.40
2023-05-19T19:23:06.894Z,7.30
2023-05-19T19:25:35.708Z,7.30
2023-05-19T19:28:03.992Z,7.40
2023-05-19T19:30:32.476Z,8.20
2023-05-19T19:33:01.301Z,10.50
2023-05-19T19:35:29.801Z,12.10
2023-05-19T19:38:01.625Z,12.50
2023-05-19T19:40:36.530Z,10.60
2023-05-19T19:43:07.624Z,9.30
2023-05-19T19:45:39.458Z,9.90
2023-05-19T19:48:07.956Z,10.10
2023-05-19T19:50:36.609Z,12.10
2023-05-19T19:53:05.132Z,11.20
2023-05-19T19:55:35.982Z,12.90
2023-05-19T19:58:04.288Z,11.10
2023-05-19T20:00:32.766Z,9.40
2023-05-19T20:03:05.157Z,9.10
2023-05-19T20:05:38.056Z,7.50
2023-05-19T20:08:06.248Z,6.70
2023-05-19T20:10:34.951Z,7.70
2023-05-19T20:15:31.987Z,6.70
2023-05-19T20:18:00.386Z,7.00
2023-05-19T20:20:29.344Z,7.10
2023-05-19T20:22:57.680Z,6.80
2023-05-19T20:25:26.277Z,6.90
2023-05-19T20:27:54.575Z,6.80
2023-05-19T20:30:23.084Z,7.10
2023-05-19T20:32:51.719Z,6.40
2023-05-19T20:35:20.108Z,5.70
2023-05-19T20:37:49.514Z,6.10
2023-05-19T20:40:18.708Z,6.00
2023-05-19T20:45:18.574Z,6.00
2023-05-19T20:47:46.931Z,6.60
2023-05-19T20:50:15.345Z,6.50
2023-05-19T20:52:44.373Z,6.70
2023-05-19T20:55:12.801Z,6.80
2023-05-19T20:57:41.208Z,6.70
2023-05-19T21:00:11.008Z,6.50
2023-05-19T21:02:39.590Z,6.90
2023-05-19T21:05:08.809Z,6.10
2023-05-19T21:10:06.145Z,5.60
2023-05-19T21:15:06.027Z,6.00
2023-05-19T21:17:43.471Z,6.40
2023-05-19T21:20:12.324Z,6.40
2023-05-19T21:22:41.463Z,7.20
2023-05-19T21:27:39.736Z,6.80
2023-05-19T21:30:09.908Z,6.70
2023-05-19T21:32:38.302Z,6.40
2023-05-19T21:35:07.028Z,7.20
2023-05-19T21:37:36.368Z,7.00
2023-05-19T21:40:05.137Z,6.80
2023-05-19T21:42:33.448Z,6.60
2023-05-19T21:45:02.389Z,6.30
2023-05-19T21:47:33.411Z,6.50
2023-05-19T21:50:01.895Z,6.60
2023-05-19T21:52:31.374Z,6.40
2023-05-19T21:54:59.989Z,6.40
2023-05-19T21:57:30.958Z,5.90
2023-05-19T21:59:59.510Z,6.50
2023-05-19T22:02:27.943Z,5.40
2023-05-19T22:04:56.261Z,6.10
2023-05-19T22:07:27.100Z,5.50
2023-05-19T22:09:58.367Z,5.70
2023-05-19T22:12:27.168Z,5.90
2023-05-19T22:14:55.713Z,6.60
2023-05-19T22:17:24.576Z,6.10
2023-05-19T22:19:56.016Z,6.20
2023-05-19T22:22:24.662Z,6.80
2023-05-19T22:25:22.656Z,6.40
2023-05-19T22:28:14.652Z,4.90
2023-05-19T22:30:44.391Z,5.60
2023-05-19T22:33:13.160Z,5.40
2023-05-19T22:35:41.804Z,6.10
2023-05-19T22:38:10.605Z,6.40
2023-05-19T22:40:39.354Z,6.60
2023-05-19T22:43:08.183Z,6.40
2023-05-19T22:45:37.005Z,6.80
2023-05-19T22:50:34.417Z,6.30
2023-05-19T22:53:02.827Z,6.30
2023-05-19T22:55:31.605Z,6.70
2023-05-19T22:58:00.097Z,6.50
2023-05-19T23:00:31.275Z,6.10
2023-05-19T23:02:59.586Z,5.40
2023-05-19T23:05:28.181Z,6.80
2023-05-19T23:07:59.736Z,6.90
2023-05-19T23:10:28.090Z,6.80
2023-05-19T23:12:56.503Z,6.20
2023-05-19T23:15:26.913Z,5.20
2023-05-19T23:17:55.143Z,7.00
2023-05-19T23:20:26.661Z,7.00
2023-05-19T23:22:55.170Z,6.70
2023-05-19T23:25:23.737Z,5.50
2023-05-19T23:27:52.153Z,6.40
2023-05-19T23:30:20.630Z,5.70
2023-05-19T23:32:48.988Z,6.50
2023-05-19T23:35:17.501Z,6.90
2023-05-19T23:37:45.935Z,6.10
2023-05-19T23:40:22.132Z,7.20
2023-05-19T23:42:50.814Z,7.10
2023-05-19T23:45:19.228Z,7.40
2023-05-19T23:47:47.421Z,6.10
2023-05-19T23:50:15.979Z,6.10
2023-05-19T23:52:44.383Z,6.80
2023-05-19T23:55:13.814Z,7.60
2023-05-19T23:57:42.649Z,7.10
